Etusivu
METAR-TAF:

METAR-TAF

Lentoasemat :

Harbin, Kiina

Leveyspiiri: 45-45N, Pituuspiiri: 126-46E, korkeus merenpinnasta: 143 m

Tämänhetkinen sää

Tämä raportti tehtiin 1 tunti ja 6 minuuttia sitten, kello 09.00 UTC
Tuuli 19 kn lännestä/lounaasta
Lämpötila 29°C
Kosteus 27%
Ilmanpaine 1005 hPa
Näkyvyys 10 km tai enemmän
ei pilviä alle 1500 m:ssä eikä cumulonimbus-pilviä

METAR: ZYHB 210900Z 24010MPS CAVOK 29/08 Q1005 NOSIG

Aika: 18:06 (10:06 UTC)

Sääennuste

Tämä raportti tehtiin 7 tuntia ja 3 minuuttia sitten, kello 03.03 UTC
Ennuste voimassa 21. päivästä klo 06 UTC - 22. päivään klo 06 UTC
Tuuli 16 kn lounaasta puuskistuen 31 kn:hen
Näkyvyys: 6000 m
Hajanaisia pilviä 3000 ft:n korkeudessa

TAF: ZYHB 210303Z 2106/2206 22008G16MPS 6000 SCT030 TX28/2106Z TN16/2121Z

Säähavainnot ja -ennusteet yli 4000 lentoasemalta (METAR- ja TAF-raportit).

Käytössä olevat sääasemat on merkitty karttaan keltaisilla ja punaisilla pisteillä.

Aseta hiiri pisteen päälle nähdäksesi sääaseman nimen.

Klikkaa sitten nähdäksesi säähavainnot ja -ennusteet.

Kartan vaihtaminen: klikkaa mustalla rastilla varustettuja vihreitä pisteitä, niin voit zoomata sisään; viivalla varustettua vihreää pistettä, niin voit zoomata ulos tai vihreitä nuolia, niin pääset viereisille kartoille.


METAR-TAF: